Time;durP1;ratioP1;P1;durP2;ratioP2;P2;SDS_P1;SDS_P2;PMS_P1;PMS_P2;Temp;Humidity;BMP_temperature;BMP_pressure;BME280_temperature;BME280_humidity;BME280_pressure;Samples;Min_cycle;Max_cycle;Signal;HPM_P1;HPM_P2
2021/05/15 00:01:50;;;;;;;1.83;1.15;;;;;;;24.93;38.23;94568.34;5068287;28;20538;-71
2021/05/15 00:04:15;;;;;;;2.88;1.42;;;;;;;24.95;38.17;94563.06;5038856;28;20111;-71
2021/05/15 00:06:41;;;;;;;2.05;1.30;;;;;;;24.94;38.45;94569.78;5026973;28;20103;-71
2021/05/15 00:09:06;;;;;;;2.28;1.20;;;;;;;24.88;38.12;94566.44;5028571;28;20037;-70
2021/05/15 00:11:32;;;;;;;2.45;1.27;;;;;;;24.90;38.20;94558.47;5028837;28;20400;-71
2021/05/15 00:13:57;;;;;;;2.65;1.20;;;;;;;24.89;37.64;94567.91;5046983;28;20025;-71
2021/05/15 00:16:23;;;;;;;2.72;1.20;;;;;;;24.63;38.54;94544.66;5046936;28;20025;-71
2021/05/15 00:18:48;;;;;;;2.10;1.27;;;;;;;24.86;37.74;94563.53;5048287;28;20017;-70
2021/05/15 00:21:14;;;;;;;2.33;1.40;;;;;;;24.84;37.84;94566.06;5046868;28;20031;-71
2021/05/15 00:23:39;;;;;;;2.13;1.15;;;;;;;24.88;38.76;94571.19;5029888;28;20543;-71
2021/05/15 00:26:05;;;;;;;2.42;1.13;;;;;;;24.77;38.69;94544.13;5048294;28;20072;-71
2021/05/15 00:28:31;;;;;;;2.17;1.17;;;;;;;24.83;38.83;94575.50;5030142;28;20028;-71
2021/05/15 00:30:56;;;;;;;2.10;1.00;;;;;;;24.84;37.86;94568.78;5054106;28;20411;-69
2021/05/15 00:33:22;;;;;;;2.22;1.25;;;;;;;24.65;39.19;94531.22;5059509;28;20098;-71
2021/05/15 00:35:47;;;;;;;2.30;1.40;;;;;;;24.83;38.47;94564.56;5057221;28;20035;-71
2021/05/15 00:38:13;;;;;;;2.75;1.35;;;;;;;24.79;38.54;94557.25;5067957;28;20028;-71
2021/05/15 00:40:39;;;;;;;1.92;1.10;;;;;;;24.81;39.34;94571.09;5066129;28;20495;-71
2021/05/15 00:43:06;;;;;;;2.08;1.27;;;;;;;24.71;38.77;94550.94;5049887;28;20113;-71
2021/05/15 00:45:31;;;;;;;3.05;1.30;;;;;;;24.83;38.01;94575.50;5067724;28;20031;-71
2021/05/15 00:47:56;;;;;;;2.28;1.20;;;;;;;24.82;38.26;94572.56;5067841;28;20025;-71
2021/05/15 00:50:22;;;;;;;2.35;1.38;;;;;;;24.62;38.42;94543.19;5068404;28;20458;-68
2021/05/15 00:52:47;;;;;;;1.70;1.13;;;;;;;24.80;38.61;94564.16;5070854;28;20044;-68
2021/05/15 00:55:13;;;;;;;2.40;1.30;;;;;;;24.75;38.76;94573.94;5053638;28;20027;-68
2021/05/15 00:57:39;;;;;;;1.80;1.00;;;;;;;24.77;38.63;94570.69;5064870;28;20031;-68
2021/05/15 01:00:09;;;;;;;1.98;1.13;;;;;;;24.79;38.77;94568.16;5051179;28;20663;-69
2021/05/15 01:02:34;;;;;;;1.98;1.10;;;;;;;24.76;38.71;94574.69;5048172;28;20021;-70
2021/05/15 01:05:00;;;;;;;3.53;1.30;;;;;;;24.69;38.08;94569.84;5029802;28;20039;-71
2021/05/15 01:07:25;;;;;;;1.67;1.02;;;;;;;24.75;38.65;94578.69;5048013;28;20013;-70
2021/05/15 01:09:51;;;;;;;1.70;1.02;;;;;;;24.73;38.80;94564.81;5047921;28;20028;-70
2021/05/15 01:12:16;;;;;;;2.15;1.10;;;;;;;24.71;38.77;94572.78;5047749;28;20021;-71
2021/05/15 01:14:42;;;;;;;2.30;1.23;;;;;;;24.75;39.03;94565.03;5047760;28;20020;-71
2021/05/15 01:17:08;;;;;;;2.28;1.30;;;;;;;24.72;39.12;94574.25;5047130;28;20074;-72
2021/05/15 01:19:34;;;;;;;2.05;1.05;;;;;;;24.72;38.79;94574.25;5029557;28;20086;-71
2021/05/15 01:22:02;;;;;;;2.22;1.13;;;;;;;24.71;38.46;94578.25;5047397;28;20678;-71
2021/05/15 01:24:28;;;;;;;1.95;1.20;;;;;;;24.69;38.88;94565.13;5029833;28;20476;-71
2021/05/15 01:26:53;;;;;;;2.35;1.30;;;;;;;24.68;39.07;94579.31;5047487;28;20033;-71
2021/05/15 01:29:19;;;;;;;1.30;1.00;;;;;;;24.44;39.20;94550.28;5048007;28;20032;-71
2021/05/15 01:31:44;;;;;;;2.67;1.38;;;;;;;24.67;39.09;94573.13;5040693;28;20028;-71
2021/05/15 01:34:10;;;;;;;1.98;1.00;;;;;;;24.67;38.99;94566.94;5047353;28;20247;-70
2021/05/15 01:36:40;;;;;;;1.92;1.35;;;;;;;24.68;38.82;94562.91;5029407;28;20028;-71
2021/05/15 01:39:08;;;;;;;2.20;1.20;;;;;;;24.58;39.04;94553.72;5046764;28;20060;-72
2021/05/15 01:41:33;;;;;;;1.65;1.08;;;;;;;24.42;38.47;94541.13;5047120;28;20021;-69
2021/05/15 01:43:59;;;;;;;2.17;1.10;;;;;;;24.62;39.35;94560.31;5045788;28;20499;-72
2021/05/15 01:46:25;;;;;;;1.70;1.08;;;;;;;24.68;38.67;94568.38;5047112;28;20407;-71
2021/05/15 01:48:50;;;;;;;1.70;1.00;;;;;;;24.61;39.25;94563.59;5040926;28;20120;-71
2021/05/15 01:51:16;;;;;;;2.25;1.10;;;;;;;24.65;39.42;94570.19;5025543;28;20040;-71
2021/05/15 01:53:43;;;;;;;1.98;1.20;;;;;;;24.67;39.26;94572.41;5026804;28;20052;-71
2021/05/15 01:56:10;;;;;;;2.13;1.30;;;;;;;24.64;38.78;94563.25;5009592;28;20033;-71
2021/05/15 01:58:36;;;;;;;2.50;1.17;;;;;;;24.64;38.84;94568.00;5009672;28;20459;-71
2021/05/15 02:01:02;;;;;;;3.63;1.30;;;;;;;24.65;38.57;94572.16;5025675;28;20083;-71
2021/05/15 02:03:27;;;;;;;3.80;1.33;;;;;;;24.50;38.59;94552.91;5027394;28;20083;-72
2021/05/15 02:05:53;;;;;;;1.70;1.10;;;;;;;24.64;38.76;94568.00;5029501;28;20033;-71
2021/05/15 02:08:19;;;;;;;2.00;1.02;;;;;;;24.61;39.16;94569.03;5030794;28;20033;-71
2021/05/15 02:10:45;;;;;;;2.78;1.33;;;;;;;24.60;39.08;94573.03;5013155;28;20484;-69
2021/05/15 02:13:10;;;;;;;2.30;1.50;;;;;;;24.61;39.54;94574.50;5040707;28;20039;-69
2021/05/15 02:15:36;;;;;;;2.33;1.30;;;;;;;24.24;39.05;94514.69;5050359;28;20111;-69
2021/05/15 02:18:05;;;;;;;1.80;0.90;;;;;;;24.61;39.31;94574.50;5032493;28;20024;-70
2021/05/15 02:20:31;;;;;;;3.42;1.10;;;;;;;24.28;38.70;94526.00;5051859;28;20020;-70
2021/05/15 02:22:57;;;;;;;2.08;1.10;;;;;;;24.58;39.20;94564.63;5041337;28;20081;-69
2021/05/15 02:25:23;;;;;;;2.28;1.15;;;;;;;24.58;39.10;94570.09;5070353;28;20107;-70
2021/05/15 02:27:48;;;;;;;1.63;1.00;;;;;;;24.56;39.50;94567.16;5070283;28;20096;-70
2021/05/15 02:30:14;;;;;;;1.83;1.08;;;;;;;24.54;39.27;94561.50;5064679;28;20025;-70
2021/05/15 02:32:40;;;;;;;2.83;1.02;;;;;;;24.50;39.46;94552.91;5061205;28;20422;-70
2021/05/15 02:35:06;;;;;;;2.25;1.45;;;;;;;24.56;39.00;94562.44;5068549;28;20408;-70
2021/05/15 02:37:31;;;;;;;2.67;1.00;;;;;;;24.57;38.96;94549.50;5067337;28;20068;-70
2021/05/15 02:39:57;;;;;;;1.83;1.30;;;;;;;24.37;39.66;94523.59;5050271;28;20028;-70
2021/05/15 02:42:22;;;;;;;2.50;1.40;;;;;;;24.56;39.03;94556.25;5031734;28;20032;-70
2021/05/15 02:44:48;;;;;;;1.77;1.20;;;;;;;24.56;39.86;94562.44;5048557;28;20115;-70
2021/05/15 02:47:13;;;;;;;1.65;1.10;;;;;;;24.56;39.12;94562.44;5048752;28;20032;-69
2021/05/15 02:49:39;;;;;;;1.75;1.08;;;;;;;24.57;38.98;94563.16;5050120;28;20040;-70
2021/05/15 02:52:04;;;;;;;1.88;1.05;;;;;;;24.55;39.16;94554.78;5049687;28;20050;-70
2021/05/15 02:54:30;;;;;;;1.88;1.15;;;;;;;24.44;39.20;94538.63;5048072;28;20516;-70
2021/05/15 02:56:55;;;;;;;2.22;1.05;;;;;;;24.55;39.69;94560.22;5048655;28;20403;-70
2021/05/15 02:59:20;;;;;;;2.17;1.15;;;;;;;24.58;39.06;94570.09;5030662;28;20518;-70
2021/05/15 03:01:46;;;;;;;1.73;1.02;;;;;;;24.55;39.48;94560.22;5049455;28;20021;-70
2021/05/15 03:04:11;;;;;;;1.63;0.95;;;;;;;24.52;38.94;94567.47;5049687;28;20028;-70
2021/05/15 03:06:37;;;;;;;1.85;1.13;;;;;;;24.52;39.43;94566.75;5031397;28;20025;-70
2021/05/15 03:09:03;;;;;;;2.10;1.30;;;;;;;24.53;39.12;94562.75;5047649;28;20037;-70
2021/05/15 03:11:28;;;;;;;1.95;1.25;;;;;;;24.55;39.75;94571.88;5049022;28;20029;-69
2021/05/15 03:13:54;;;;;;;2.05;1.23;;;;;;;24.51;39.44;94566.03;5049504;28;20041;-70
2021/05/15 03:16:19;;;;;;;3.38;1.30;;;;;;;24.42;38.91;94552.06;5048269;28;20163;-70
2021/05/15 03:18:44;;;;;;;2.30;1.30;;;;;;;24.51;39.47;94565.28;5048823;28;20496;-70
2021/05/15 03:21:10;;;;;;;1.77;1.10;;;;;;;24.49;39.50;94568.53;5049154;28;20021;-70
2021/05/15 03:23:35;;;;;;;1.88;1.35;;;;;;;24.45;39.25;94551.00;5048913;28;20078;-70
2021/05/15 03:26:01;;;;;;;2.20;1.20;;;;;;;24.51;39.53;94566.03;5030333;28;20033;-71
2021/05/15 03:28:26;;;;;;;2.03;1.25;;;;;;;24.44;39.84;94549.53;5030463;28;20029;-70
2021/05/15 03:30:53;;;;;;;2.40;1.50;;;;;;;24.51;39.24;94560.56;5054676;28;20400;-70
2021/05/15 03:33:19;;;;;;;2.58;1.50;;;;;;;24.45;39.63;94557.22;5075434;28;20085;-69
2021/05/15 03:35:44;;;;;;;1.50;0.98;;;;;;;24.52;39.68;94561.28;5023734;28;20021;-70
2021/05/15 03:38:10;;;;;;;2.30;1.10;;;;;;;24.54;39.46;94566.94;5030661;28;20090;-70
2021/05/15 03:40:36;;;;;;;2.47;1.25;;;;;;;24.50;39.56;94563.81;5034454;28;20488;-69
2021/05/15 03:43:02;;;;;;;1.98;1.13;;;;;;;24.52;39.27;94564.03;5048621;28;20461;-70
2021/05/15 03:45:28;;;;;;;2.17;1.05;;;;;;;24.20;39.80;94525.19;5048787;28;20021;-69
2021/05/15 03:47:53;;;;;;;2.67;1.00;;;;;;;24.49;40.05;94567.81;5064299;28;20111;-70
2021/05/15 03:50:21;;;;;;;1.73;1.10;;;;;;;24.52;39.25;94572.22;5030934;28;20029;-70
2021/05/15 03:52:47;;;;;;;2.25;1.05;;;;;;;24.51;39.24;94576.19;5047529;28;20057;-70
2021/05/15 03:55:13;;;;;;;2.20;1.23;;;;;;;24.51;38.88;94576.19;5048450;28;20412;-70
2021/05/15 03:57:38;;;;;;;1.75;1.05;;;;;;;24.52;39.32;94577.66;5048586;28;20067;-70
2021/05/15 04:00:04;;;;;;;2.40;1.00;;;;;;;24.48;39.67;94571.78;5047586;28;20021;-70
2021/05/15 04:02:30;;;;;;;1.80;1.20;;;;;;;24.54;39.68;94575.13;5030680;28;20025;-70
2021/05/15 04:04:57;;;;;;;1.75;1.00;;;;;;;24.57;39.46;94574.09;5045887;28;20033;-69
2021/05/15 04:07:22;;;;;;;2.67;1.00;;;;;;;24.59;39.44;94582.50;5047025;28;20013;-69
2021/05/15 04:09:48;;;;;;;1.58;0.90;;;;;;;24.58;39.66;94570.81;5047498;28;20032;-71
2021/05/15 04:12:15;;;;;;;1.75;0.98;;;;;;;24.66;40.15;94576.38;5047412;28;20036;-68
2021/05/15 04:14:44;;;;;;;5.30;1.80;;;;;;;24.39;39.99;94532.03;5046893;28;20112;-69
2021/05/15 04:19:35;;;;;;;4.65;1.88;;;;;;;24.70;40.68;94571.34;5046053;28;20036;-69
2021/05/15 04:22:01;;;;;;;5.90;1.73;;;;;;;24.76;40.53;94569.22;5046964;28;20100;-70
2021/05/15 04:24:27;;;;;;;5.20;2.00;;;;;;;24.83;40.04;94564.56;5046780;28;20025;-71
2021/05/15 04:26:53;;;;;;;5.72;1.92;;;;;;;24.60;39.72;94529.34;5028357;28;20404;-71
2021/05/15 04:29:19;;;;;;;4.40;1.90;;;;;;;25.01;39.69;94574.63;5028493;28;20532;-71
2021/05/15 04:31:44;;;;;;;5.32;2.03;;;;;;;25.12;39.85;94573.66;5051882;28;20031;-70
2021/05/15 04:34:10;;;;;;;5.20;2.13;;;;;;;25.22;39.74;94572.69;5049093;28;20016;-70
2021/05/15 04:36:35;;;;;;;9.35;2.30;;;;;;;25.31;38.96;94574.94;5049520;28;20020;-70
2021/05/15 04:39:01;;;;;;;7.07;2.65;;;;;;;25.41;38.71;94563.03;5029219;28;20032;-71
2021/05/15 04:41:26;;;;;;;7.72;2.10;;;;;;;25.51;38.45;94560.56;5046882;28;20021;-70
2021/05/15 04:43:52;;;;;;;5.32;2.63;;;;;;;25.54;38.89;94540.34;5045972;28;20013;-71
2021/05/15 04:46:17;;;;;;;6.75;2.30;;;;;;;25.54;38.36;94529.41;5046447;28;20024;-71
2021/05/15 04:48:44;;;;;;;8.45;3.03;;;;;;;25.81;38.19;94551.34;5046396;28;20507;-70
2021/05/15 04:51:10;;;;;;;8.02;2.78;;;;;;;25.90;38.06;94548.13;5046345;28;20100;-71
2021/05/15 04:53:36;;;;;;;5.28;2.00;;;;;;;25.98;37.95;94559.13;5025219;28;20055;-71
2021/05/15 04:56:02;;;;;;;5.85;2.22;;;;;;;26.11;38.11;94546.06;5038313;28;21644;-74
2021/05/15 04:58:27;;;;;;;7.05;2.42;;;;;;;26.18;37.61;94528.97;5043111;28;20513;-71
2021/05/15 05:00:53;;;;;;;6.22;3.15;;;;;;;26.17;37.07;94515.81;5053437;28;20047;-71
2021/05/15 05:03:18;;;;;;;8.48;2.58;;;;;;;26.36;37.21;94517.03;5046180;28;20033;-70
2021/05/15 05:05:43;;;;;;;6.85;2.42;;;;;;;26.20;37.53;94492.84;5046867;28;20025;-71
2021/05/15 05:08:09;;;;;;;6.13;2.20;;;;;;;26.51;38.13;94511.63;5046342;28;20177;-70
2021/05/15 05:10:34;;;;;;;7.15;2.20;;;;;;;26.62;37.12;94516.78;5028617;28;20043;-71
2021/05/15 05:13:04;;;;;;;6.00;2.10;;;;;;;26.65;37.06;94499.25;5045989;28;20540;-71
2021/05/15 05:15:29;;;;;;;5.88;2.10;;;;;;;26.70;36.64;94485.41;5028816;28;20017;-70
2021/05/15 05:17:54;;;;;;;5.82;2.13;;;;;;;26.53;36.92;94459.78;5046387;28;20040;-72
2021/05/15 05:20:20;;;;;;;6.78;2.17;;;;;;;26.85;36.59;94486.19;5040041;28;20021;-71
2021/05/15 05:22:46;;;;;;;5.88;2.45;;;;;;;26.85;36.31;94491.66;5036106;28;20029;-72
2021/05/15 05:25:13;;;;;;;6.45;2.30;;;;;;;26.93;35.93;94492.41;5046142;28;20016;-72
2021/05/15 05:27:45;;;;;;;6.72;2.05;;;;;;;27.00;36.49;94491.72;5047065;28;20570;-72
2021/05/15 05:30:11;;;;;;;4.80;1.70;;;;;;;27.07;36.47;94480.03;5044036;28;20037;-70
2021/05/15 05:32:36;;;;;;;5.00;2.10;;;;;;;26.85;36.45;94453.28;5051336;28;20052;-70
2021/05/15 05:35:02;;;;;;;4.68;2.10;;;;;;;27.19;36.31;94481.16;5031467;28;20021;-70
2021/05/15 05:37:27;;;;;;;3.33;1.63;;;;;;;27.27;35.87;94487.38;5054165;28;20017;-69
2021/05/15 05:39:54;;;;;;;4.68;1.80;;;;;;;27.27;36.05;94479.13;5049648;28;20017;-71
2021/05/15 05:42:20;;;;;;;3.95;1.70;;;;;;;27.11;36.13;94496.13;5053188;28;20025;-69
2021/05/15 05:44:45;;;;;;;4.80;1.70;;;;;;;27.23;35.47;94480.78;5050976;28;20035;-68
2021/05/15 05:47:12;;;;;;;3.53;1.90;;;;;;;27.28;36.11;94486.09;5035453;28;20565;-69
2021/05/15 05:49:37;;;;;;;4.70;1.88;;;;;;;27.37;36.07;94491.03;5049248;28;20055;-71
2021/05/15 05:52:03;;;;;;;2.95;1.50;;;;;;;27.43;36.15;94499.81;5049993;28;20111;-71
2021/05/15 05:54:29;;;;;;;3.35;1.30;;;;;;;27.29;35.68;94468.34;5049425;28;20520;-71
2021/05/15 05:56:54;;;;;;;3.53;1.65;;;;;;;27.63;35.86;94490.69;5031978;28;20035;-71
2021/05/15 05:59:20;;;;;;;3.10;1.73;;;;;;;27.57;35.08;94481.91;5047252;28;20028;-69
2021/05/15 06:01:45;;;;;;;5.15;1.83;;;;;;;27.65;36.06;94482.63;5050914;28;20017;-71
2021/05/15 06:04:11;;;;;;;3.83;1.70;;;;;;;27.65;35.80;94482.63;5049340;28;20472;-70
2021/05/15 06:06:36;;;;;;;3.25;1.60;;;;;;;27.71;35.73;94492.13;5031537;28;20411;-68
2021/05/15 06:09:05;;;;;;;4.70;1.42;;;;;;;27.74;35.48;94491.78;5049492;28;20029;-68
2021/05/15 06:11:31;;;;;;;4.27;1.50;;;;;;;27.80;35.96;94489.59;5049058;28;20029;-67
2021/05/15 06:13:56;;;;;;;3.20;1.63;;;;;;;27.68;35.66;94476.06;5048517;28;20029;-68
2021/05/15 06:16:22;;;;;;;3.83;1.55;;;;;;;27.87;35.33;94491.56;5031822;28;20029;-68
2021/05/15 06:18:47;;;;;;;3.67;1.60;;;;;;;27.88;35.40;94495.78;5031109;28;20274;-69
2021/05/15 06:21:13;;;;;;;3.75;1.58;;;;;;;27.78;35.53;94470.16;5031275;28;20017;-68
2021/05/15 06:23:38;;;;;;;6.53;1.67;;;;;;;28.02;35.43;94483.31;5046990;28;20056;-68
2021/05/15 06:26:08;;;;;;;3.75;1.70;;;;;;;27.81;34.86;94447.13;5052522;28;20025;-69
2021/05/15 06:28:34;;;;;;;2.25;1.30;;;;;;;28.05;35.08;94482.19;5050709;28;20039;-68
2021/05/15 06:31:01;;;;;;;2.35;1.30;;;;;;;28.06;35.21;94472.69;5034506;28;20415;-69
2021/05/15 06:33:26;;;;;;;3.17;1.20;;;;;;;28.15;35.31;94468.69;5052981;28;20487;-70
2021/05/15 06:35:51;;;;;;;4.45;1.60;;;;;;;28.02;35.20;94444.88;5050861;28;20021;-69
2021/05/15 06:38:18;;;;;;;3.08;1.67;;;;;;;28.17;35.11;94455.84;5030830;28;20036;-71
2021/05/15 06:40:44;;;;;;;3.28;1.40;;;;;;;28.15;35.94;94441.22;5047848;28;20021;-71
2021/05/15 06:43:09;;;;;;;2.78;1.20;;;;;;;28.23;35.35;94464.59;5053346;28;20400;-70
2021/05/15 06:45:34;;;;;;;3.45;1.40;;;;;;;28.20;34.55;94465.72;5051091;28;20452;-71
2021/05/15 06:48:00;;;;;;;2.60;1.10;;;;;;;28.16;34.87;94457.13;5050229;28;20507;-70
2021/05/15 06:50:25;;;;;;;3.38;1.50;;;;;;;28.20;34.67;94454.72;5047543;28;20032;-70
2021/05/15 06:52:51;;;;;;;4.32;1.50;;;;;;;28.16;34.61;94451.66;5043479;28;20520;-74
2021/05/15 06:55:17;;;;;;;4.85;1.60;;;;;;;28.14;34.50;94451.47;5020075;28;20083;-69
2021/05/15 06:57:42;;;;;;;2.35;1.10;;;;;;;28.34;34.31;94469.69;5049834;28;20040;-69
2021/05/15 07:00:08;;;;;;;4.40;1.52;;;;;;;28.05;34.99;94427.28;5029202;28;20021;-70
2021/05/15 07:02:34;;;;;;;4.00;1.42;;;;;;;28.15;35.29;94463.91;5028184;28;20032;-72
2021/05/15 07:05:00;;;;;;;2.00;1.30;;;;;;;28.11;35.07;94457.34;5046480;28;20048;-71
2021/05/15 07:07:25;;;;;;;3.58;1.33;;;;;;;27.95;34.53;94456.63;5044206;28;20037;-72
2021/05/15 07:09:51;;;;;;;3.80;1.23;;;;;;;27.94;34.89;94446.91;5048213;28;20554;-72
2021/05/15 07:12:17;;;;;;;2.83;1.33;;;;;;;27.63;35.45;94430.34;5030376;28;20436;-70
2021/05/15 07:14:42;;;;;;;2.13;1.02;;;;;;;27.58;35.60;94444.94;5047942;28;20025;-71
2021/05/15 07:17:08;;;;;;;4.05;1.42;;;;;;;27.60;36.68;94453.38;5048829;28;20502;-71
2021/05/15 07:19:33;;;;;;;2.63;1.35;;;;;;;27.47;36.73;94445.31;5047894;28;20115;-72
2021/05/15 07:21:59;;;;;;;3.10;1.20;;;;;;;27.41;36.57;94448.25;5030598;28;20029;-72
2021/05/15 07:24:25;;;;;;;4.72;1.65;;;;;;;27.37;37.16;94452.66;5048190;28;20029;-70
2021/05/15 07:26:50;;;;;;;4.03;1.27;;;;;;;27.29;36.11;94447.16;5048227;28;20423;-72
2021/05/15 07:29:15;;;;;;;2.00;1.13;;;;;;;27.21;36.94;94444.97;5029845;28;20419;-71
2021/05/15 07:31:41;;;;;;;2.25;1.10;;;;;;;26.97;37.49;94448.94;5030531;28;20033;-71
2021/05/15 07:34:06;;;;;;;3.50;1.20;;;;;;;26.85;37.74;94442.31;5047775;28;20029;-71
2021/05/15 07:36:32;;;;;;;2.90;1.15;;;;;;;26.76;37.83;94433.19;5048384;28;20032;-71
2021/05/15 07:38:57;;;;;;;3.45;1.02;;;;;;;26.83;38.64;94439.41;5047914;28;20383;-71
2021/05/15 07:41:25;;;;;;;5.18;1.40;;;;;;;26.70;37.39;94435.38;5048295;28;20029;-72
2021/05/15 07:43:50;;;;;;;3.53;1.33;;;;;;;26.61;37.80;94433.88;5029968;28;20021;-72
2021/05/15 07:46:16;;;;;;;3.33;1.08;;;;;;;26.62;37.84;94412.69;5048507;28;20044;-71
2021/05/15 07:48:42;;;;;;;3.35;1.40;;;;;;;26.57;39.17;94419.09;5047857;28;20029;-71
2021/05/15 07:51:09;;;;;;;1.80;0.80;;;;;;;26.45;37.98;94409.75;5047787;28;20480;-71
2021/05/15 07:53:35;;;;;;;2.20;0.80;;;;;;;26.41;39.22;94409.34;5045443;28;20049;-72
2021/05/15 07:56:00;;;;;;;4.50;1.20;;;;;;;26.38;39.15;94407.69;5030053;28;20578;-71
2021/05/15 07:58:26;;;;;;;2.65;1.55;;;;;;;26.33;38.59;94414.09;5047425;28;20039;-71
2021/05/15 08:00:51;;;;;;;2.83;1.25;;;;;;;26.24;38.72;94411.84;5047685;28;20021;-71
2021/05/15 08:03:17;;;;;;;3.83;0.90;;;;;;;26.24;39.93;94417.31;5047118;28;20021;-71
2021/05/15 08:05:42;;;;;;;2.80;0.93;;;;;;;26.24;38.70;94422.78;5029578;28;20024;-70
2021/05/15 08:08:07;;;;;;;4.05;1.08;;;;;;;26.19;38.08;94420.19;5048617;28;20074;-71
2021/05/15 08:10:33;;;;;;;2.47;1.10;;;;;;;26.10;38.94;94418.72;5048273;28;20446;-71
2021/05/15 08:12:59;;;;;;;3.78;1.20;;;;;;;26.09;38.13;94409.03;5048554;28;20363;-70
2021/05/15 08:15:24;;;;;;;1.92;1.00;;;;;;;26.14;38.64;94413.59;5030305;28;20021;-71
2021/05/15 08:17:50;;;;;;;1.83;0.70;;;;;;;26.11;39.18;94398.28;5047837;28;20470;-71
2021/05/15 08:20:16;;;;;;;2.83;1.08;;;;;;;26.13;40.02;94406.69;5048102;28;20044;-71
2021/05/15 08:22:41;;;;;;;3.47;1.20;;;;;;;26.13;38.85;94406.69;5048109;28;20561;-71
2021/05/15 08:25:07;;;;;;;1.80;1.30;;;;;;;26.11;39.69;94403.75;5048567;28;20349;-68
2021/05/15 08:27:35;;;;;;;3.97;1.00;;;;;;;26.10;39.18;94385.88;5050644;28;20074;-68
2021/05/15 08:30:01;;;;;;;1.80;0.90;;;;;;;26.09;39.49;94400.84;5033760;28;20496;-68
2021/05/15 08:32:26;;;;;;;2.45;1.20;;;;;;;26.11;38.13;94383.88;5033767;28;20031;-68
2021/05/15 08:34:51;;;;;;;2.35;1.05;;;;;;;26.13;38.53;94390.28;5050390;28;20048;-68
2021/05/15 08:37:17;;;;;;;3.58;1.20;;;;;;;26.04;39.15;94381.84;5052214;28;20408;-68
2021/05/15 08:39:42;;;;;;;2.67;1.10;;;;;;;25.90;37.97;94362.09;5048878;28;20570;-71
2021/05/15 08:42:08;;;;;;;4.20;1.70;;;;;;;25.98;38.07;94362.84;5047862;28;20025;-71
2021/05/15 08:44:36;;;;;;;3.00;1.10;;;;;;;25.92;38.52;94365.00;5048062;28;20484;-71
2021/05/15 08:47:01;;;;;;;2.53;1.20;;;;;;;26.10;39.57;94380.41;5030149;28;20035;-69
2021/05/15 08:49:27;;;;;;;1.80;0.98;;;;;;;26.12;38.20;94388.81;5047349;28;20488;-71
2021/05/15 08:51:55;;;;;;;1.77;1.00;;;;;;;26.15;37.56;94392.47;5010429;28;20920;-71
2021/05/15 08:54:21;;;;;;;3.17;1.10;;;;;;;25.70;37.97;94325.91;5027639;28;20056;-71
2021/05/15 08:56:48;;;;;;;2.38;1.15;;;;;;;25.97;38.20;94361.38;5010414;28;20056;-70
2021/05/15 08:59:14;;;;;;;2.33;0.95;;;;;;;26.08;36.79;94382.22;5039861;28;20040;-71
2021/05/15 09:01:44;;;;;;;1.75;1.00;;;;;;;26.07;36.52;94386.97;5046291;28;20047;-71
2021/05/15 09:04:10;;;;;;;4.15;1.25;;;;;;;26.07;38.33;94381.50;5030309;28;20594;-71
2021/05/15 09:06:39;;;;;;;2.55;1.20;;;;;;;26.05;37.27;94381.31;5046198;28;20119;-71
2021/05/15 09:09:05;;;;;;;2.15;1.00;;;;;;;26.06;37.91;94379.28;5047601;28;20040;-71
2021/05/15 09:11:31;;;;;;;3.03;1.05;;;;;;;25.99;37.61;94380.75;5047291;28;20545;-71
2021/05/15 09:13:56;;;;;;;2.05;1.10;;;;;;;26.02;36.85;94368.72;5045453;28;20064;-71
2021/05/15 09:16:22;;;;;;;1.95;1.00;;;;;;;25.94;36.74;94367.22;5046031;28;20449;-71
2021/05/15 09:18:47;;;;;;;3.58;1.15;;;;;;;25.80;36.97;94352.94;5047541;28;20025;-71
2021/05/15 09:21:20;;;;;;;3.05;1.00;;;;;;;25.96;37.22;94359.94;5045900;28;20025;-71
2021/05/15 09:23:46;;;;;;;2.20;1.00;;;;;;;25.95;36.31;94363.94;5046947;28;20025;-72
2021/05/15 09:26:22;;;;;;;3.75;1.30;;;;;;;25.97;37.70;94361.38;5046962;28;20029;-75
2021/05/15 09:28:48;;;;;;;4.53;1.20;;;;;;;25.91;35.26;94347.13;5051654;28;20024;-73
2021/05/15 09:31:21;;;;;;;4.22;1.30;;;;;;;25.90;35.06;94367.56;5046611;28;20989;-74
2021/05/15 09:33:51;;;;;;;3.63;1.20;;;;;;;25.86;35.51;94350.75;5030176;28;20076;-74
2021/05/15 09:36:24;;;;;;;3.20;1.10;;;;;;;25.77;35.05;94347.06;5044261;28;20020;-73
2021/05/15 09:39:21;;;;;;;4.13;1.13;;;;;;;25.62;35.36;94319.63;5029565;28;20461;-71
2021/05/15 09:41:48;;;;;;;3.15;1.20;;;;;;;25.82;34.51;94355.84;5012562;28;20041;-73
2021/05/15 09:44:15;;;;;;;2.78;1.10;;;;;;;25.66;33.56;94352.84;5047292;28;20064;-71
2021/05/15 09:46:43;;;;;;;3.05;1.35;;;;;;;25.54;33.64;94357.13;5045543;28;20013;-72
2021/05/15 09:49:08;;;;;;;3.38;1.00;;;;;;;25.20;33.59;94329.25;5048246;28;20734;-72
2021/05/15 09:51:34;;;;;;;3.97;1.02;;;;;;;25.34;33.54;94366.16;5044841;28;20022;-72
2021/05/15 09:54:13;;;;;;;2.78;1.00;;;;;;;25.25;34.09;94352.97;5051024;28;20079;-72
2021/05/15 09:56:39;;;;;;;3.13;1.30;;;;;;;25.11;35.22;94357.06;5044850;28;20098;-71
2021/05/15 09:59:05;;;;;;;2.88;1.10;;;;;;;25.13;35.58;94360.00;5046615;28;20499;-73
2021/05/15 10:01:45;;;;;;;3.53;0.95;;;;;;;25.15;35.46;94357.44;5044623;28;20027;-71
2021/05/15 10:04:11;;;;;;;2.83;1.33;;;;;;;25.34;36.64;94349.75;5043361;28;20600;-72
2021/05/15 10:06:36;;;;;;;5.70;1.50;;;;;;;25.38;36.50;94355.59;5049937;28;20017;-71
2021/05/15 10:09:02;;;;;;;3.17;1.05;;;;;;;25.52;37.07;94359.69;5031275;28;20060;-72
2021/05/15 10:11:29;;;;;;;8.05;2.08;;;;;;;25.27;37.35;94328.56;5044921;28;20031;-71
2021/05/15 10:13:54;;;;;;;6.50;1.40;;;;;;;25.58;38.44;94363.00;5033837;28;20028;-70
2021/05/15 10:16:20;;;;;;;4.65;1.30;;;;;;;25.46;38.90;94337.25;5031781;28;20106;-71
2021/05/15 10:18:45;;;;;;;4.63;1.38;;;;;;;25.65;38.60;94367.78;5047702;28;20017;-71
2021/05/15 10:21:11;;;;;;;5.07;1.08;;;;;;;25.68;37.79;94369.44;5045915;28;20036;-70
2021/05/15 10:23:41;;;;;;;6.70;1.33;;;;;;;25.52;38.68;94333.06;5044058;28;20060;-70
2021/05/15 10:26:07;;;;;;;;;;;;;;;25.74;38.58;94370.03;5050116;28;20117;-70
2021/05/15 10:28:37;;;;;;;3.13;1.58;;;;;;;25.67;39.48;94376.94;5056300;28;19962;-70
2021/05/15 10:31:09;;;;;;;3.22;1.25;;;;;;;25.65;39.28;94365.06;5044580;28;20036;-70
2021/05/15 10:33:35;;;;;;;4.22;1.58;;;;;;;25.66;39.55;94372.00;5051920;28;20087;-70
2021/05/15 10:36:03;;;;;;;4.90;1.42;;;;;;;25.49;39.11;94371.69;5033616;28;20028;-70
2021/05/15 10:38:37;;;;;;;3.80;1.20;;;;;;;25.36;38.58;94336.25;5031485;28;20033;-70
2021/05/15 10:41:14;;;;;;;5.25;1.20;;;;;;;25.24;38.49;94334.38;5033750;28;20024;-70
2021/05/15 10:43:40;;;;;;;3.10;1.10;;;;;;;25.61;38.87;94361.94;5034508;28;20378;-70
2021/05/15 10:46:22;;;;;;;5.18;1.50;;;;;;;25.62;38.72;94363.38;5048658;28;20893;-70
2021/05/15 10:49:24;;;;;;;3.95;1.30;;;;;;;26.03;38.84;94353.00;5050761;28;20013;-71
2021/05/15 10:51:51;;;;;;;7.20;1.38;;;;;;;26.16;39.13;94344.66;5008373;28;20044;-70
2021/05/15 10:54:33;;;;;;;3.15;1.10;;;;;;;26.29;39.34;94343.28;5063932;28;20056;-70
2021/05/15 10:57:05;;;;;;;5.00;1.40;;;;;;;26.41;38.71;94340.91;5058672;28;20033;-71
2021/05/15 10:59:30;;;;;;;4.32;1.00;;;;;;;26.42;38.83;94323.22;5048708;28;20036;-71
2021/05/15 11:02:00;;;;;;;4.22;1.67;;;;;;;26.58;38.75;94341.13;5031169;28;20412;-71
2021/05/15 11:04:26;;;;;;;5.00;1.60;;;;;;;26.62;38.36;94327.78;5049032;28;20514;-71
2021/05/15 11:06:59;;;;;;;8.45;1.02;;;;;;;26.71;38.25;94327.25;5030745;28;20041;-71
2021/05/15 11:09:25;;;;;;;5.32;1.88;;;;;;;26.73;38.19;94335.66;5051642;28;20032;-71
2021/05/15 11:11:51;;;;;;;4.43;1.35;;;;;;;26.80;38.19;94341.88;5032588;28;20515;-73
2021/05/15 11:14:33;;;;;;;4.82;1.40;;;;;;;26.71;38.06;94311.56;5052940;28;20036;-72
2021/05/15 11:17:12;;;;;;;2.95;1.00;;;;;;;26.91;37.84;94336.03;5031903;28;20187;-72
2021/05/15 11:19:38;;;;;;;3.95;1.08;;;;;;;27.01;37.84;94339.69;5052573;28;20442;-71
2021/05/15 11:22:04;;;;;;;7.45;0.90;;;;;;;27.02;37.34;94335.66;5049287;28;20036;-71
2021/05/15 11:24:36;;;;;;;2.22;1.10;;;;;;;27.01;37.36;94339.69;5052545;28;20492;-71
2021/05/15 11:27:12;;;;;;;3.47;1.05;;;;;;;27.02;37.13;94343.16;5054261;28;20563;-70
2021/05/15 11:29:38;;;;;;;4.18;1.15;;;;;;;27.21;37.26;94363.44;5033365;28;20040;-71
2021/05/15 11:32:12;;;;;;;3.72;1.00;;;;;;;27.25;37.45;94356.31;5048746;28;20036;-73
2021/05/15 11:34:37;;;;;;;2.58;1.00;;;;;;;27.29;36.92;94364.16;5049602;28;20403;-74